createdAt,value
2018-02-23T00:00:18.322Z,0
2018-02-23T00:01:32.736Z,0
2018-02-23T00:02:18.343Z,0
2018-02-23T00:03:32.756Z,0
2018-02-23T00:04:47.420Z,0
2018-02-23T00:05:18.382Z,0
2018-02-23T00:06:33.040Z,0
2018-02-23T00:07:18.400Z,0
2018-02-23T00:08:18.145Z,0
2018-02-23T00:10:18.436Z,0
2018-02-23T00:11:18.447Z,0
2018-02-23T00:12:18.193Z,0
2018-02-23T00:13:33.158Z,0
2018-02-23T00:14:32.636Z,0
2018-02-23T00:15:18.521Z,0
2018-02-23T00:16:18.525Z,0
2018-02-23T00:17:18.528Z,0
2018-02-23T00:18:33.204Z,0
2018-02-23T00:19:18.551Z,0
2018-02-23T00:20:18.571Z,0
2018-02-23T00:21:18.594Z,0
2018-02-23T00:22:18.590Z,0
2018-02-23T00:23:18.611Z,0
2018-02-23T00:24:18.724Z,0
2018-02-23T00:25:18.627Z,0
2018-02-23T00:26:18.200Z,0
2018-02-23T00:27:18.386Z,0
2018-02-23T00:28:33.335Z,0
2018-02-23T00:29:33.325Z,0
2018-02-23T00:30:18.679Z,0
2018-02-23T00:31:18.433Z,0
2018-02-23T00:32:18.718Z,0
2018-02-23T00:34:18.891Z,0
2018-02-23T00:35:33.404Z,0
2018-02-23T00:36:18.765Z,0
2018-02-23T00:37:33.424Z,0
2018-02-23T00:38:17.732Z,0
2018-02-23T00:39:18.839Z,0
2018-02-23T00:41:18.819Z,0
2018-02-23T00:42:18.826Z,0
2018-02-23T00:43:33.233Z,0
2018-02-23T00:44:33.524Z,0
2018-02-23T00:45:33.509Z,0
2018-02-23T00:46:18.872Z,0
2018-02-23T00:47:18.618Z,0
2018-02-23T00:48:18.903Z,0
2018-02-23T00:49:18.921Z,0
2018-02-23T00:50:33.565Z,0
2018-02-23T00:51:18.688Z,0
2018-02-23T00:53:18.707Z,0
2018-02-23T00:54:18.986Z,0
2018-02-23T00:55:18.975Z,0
2018-02-23T00:56:18.739Z,0
2018-02-23T00:57:18.482Z,0
2018-02-23T00:58:18.765Z,0
2018-02-23T00:59:19.028Z,0
2018-02-23T01:00:48.347Z,0
2018-02-23T01:01:19.051Z,0
2018-02-23T01:02:19.066Z,0
2018-02-23T01:03:19.076Z,0
2018-02-23T01:04:19.077Z,0
2018-02-23T01:05:18.843Z,0
2018-02-23T01:06:19.105Z,0
2018-02-23T01:07:18.891Z,0
2018-02-23T01:08:19.155Z,0
2018-02-23T01:09:19.158Z,0
2018-02-23T01:10:33.810Z,0
2018-02-23T01:11:19.157Z,0
2018-02-23T01:12:19.186Z,0
2018-02-23T01:13:19.181Z,0
2018-02-23T01:14:19.205Z,0
2018-02-23T01:15:19.221Z,0
2018-02-23T01:16:19.265Z,0
2018-02-23T01:17:19.226Z,0
2018-02-23T01:18:19.257Z,0
2018-02-23T01:19:19.256Z,0
2018-02-23T01:20:19.012Z,0
2018-02-23T01:21:19.298Z,0
2018-02-23T01:22:19.307Z,0
2018-02-23T01:23:19.051Z,0
2018-02-23T01:24:33.701Z,0
2018-02-23T01:25:33.979Z,0
2018-02-23T01:26:19.339Z,0
2018-02-23T01:27:34.024Z,0
2018-02-23T01:28:19.133Z,0
2018-02-23T01:29:19.115Z,0
2018-02-23T01:30:19.389Z,0
2018-02-23T01:31:19.427Z,0
2018-02-23T01:32:34.066Z,0
2018-02-23T01:33:33.811Z,0
2018-02-23T01:34:33.815Z,0
2018-02-23T01:35:19.459Z,0
2018-02-23T01:36:19.464Z,0
2018-02-23T01:37:19.197Z,0
2018-02-23T01:38:19.489Z,0
2018-02-23T01:39:33.872Z,0
2018-02-23T01:40:19.491Z,0
2018-02-23T01:41:33.908Z,0
2018-02-23T01:42:34.231Z,0
2018-02-23T01:43:19.538Z,0
2018-02-23T01:44:19.554Z,0
2018-02-23T01:45:19.387Z,0
2018-02-23T01:46:19.559Z,0
2018-02-23T01:47:19.573Z,0
2018-02-23T01:48:33.971Z,0
2018-02-23T01:49:19.606Z,0
2018-02-23T01:51:19.376Z,0
2018-02-23T01:52:19.656Z,0
2018-02-23T01:53:19.647Z,0
2018-02-23T01:54:19.651Z,0
2018-02-23T01:55:19.667Z,0
2018-02-23T01:56:34.068Z,0
2018-02-23T01:57:34.094Z,0
2018-02-23T01:58:34.360Z,0
2018-02-23T01:59:34.375Z,0
2018-02-23T02:00:19.732Z,0
2018-02-23T02:01:19.743Z,0
2018-02-23T02:03:19.522Z,0
2018-02-23T02:05:34.185Z,0
2018-02-23T02:06:19.800Z,0
2018-02-23T02:07:19.559Z,0
2018-02-23T02:08:19.812Z,0
2018-02-23T02:09:34.222Z,0
2018-02-23T02:10:19.597Z,0
2018-02-23T02:11:19.585Z,0
2018-02-23T02:12:19.597Z,0
2018-02-23T02:13:19.882Z,0
2018-02-23T02:14:19.898Z,0
2018-02-23T02:15:34.291Z,0
2018-02-23T02:16:19.899Z,0
2018-02-23T02:17:19.917Z,0
2018-02-23T02:18:19.936Z,0
2018-02-23T02:19:19.946Z,0
2018-02-23T02:20:34.604Z,0
2018-02-23T02:21:19.944Z,0
2018-02-23T02:22:34.619Z,0
2018-02-23T02:23:19.992Z,0
2018-02-23T02:24:20.020Z,0
2018-02-23T02:25:19.753Z,0
2018-02-23T02:26:34.675Z,0
2018-02-23T02:27:20.034Z,0
2018-02-23T02:28:20.041Z,0
2018-02-23T02:30:34.716Z,0
2018-02-23T02:31:19.829Z,0
2018-02-23T02:32:20.097Z,0
2018-02-23T02:33:19.857Z,0
2018-02-23T02:34:20.116Z,0
2018-02-23T02:35:34.796Z,0
2018-02-23T02:36:20.158Z,0
2018-02-23T02:37:20.137Z,0
2018-02-23T02:38:20.158Z,0
2018-02-23T02:39:20.210Z,0
2018-02-23T02:40:34.307Z,0
2018-02-23T02:41:20.193Z,0
2018-02-23T02:43:20.215Z,0
2018-02-23T02:44:20.217Z,0
2018-02-23T02:45:20.221Z,0
2018-02-23T02:46:19.965Z,0
2018-02-23T02:47:19.984Z,0
2018-02-23T02:48:20.289Z,0
2018-02-23T02:49:20.027Z,0
2018-02-23T02:50:34.933Z,0
2018-02-23T02:52:20.046Z,0
2018-02-23T02:53:20.328Z,0
2018-02-23T02:54:20.073Z,0
2018-02-23T02:55:20.345Z,0
2018-02-23T02:57:20.100Z,0
2018-02-23T02:58:20.371Z,0
2018-02-23T02:59:20.391Z,0
2018-02-23T03:00:35.051Z,0
2018-02-23T03:01:20.157Z,0
2018-02-23T03:02:35.083Z,0
2018-02-23T03:03:34.817Z,0
2018-02-23T03:04:35.096Z,0
2018-02-23T03:05:35.091Z,0
2018-02-23T03:06:20.198Z,0
2018-02-23T03:08:20.494Z,0
2018-02-23T03:09:20.517Z,0
2018-02-23T03:10:20.520Z,0
2018-02-23T03:11:20.522Z,0
2018-02-23T03:12:20.517Z,0
2018-02-23T03:13:20.527Z,0
2018-02-23T03:14:20.541Z,0
2018-02-23T03:15:20.546Z,0
2018-02-23T03:16:20.294Z,0
2018-02-23T03:17:20.592Z,0
2018-02-23T03:18:20.590Z,0
2018-02-23T03:19:20.597Z,0
2018-02-23T03:20:20.596Z,0
2018-02-23T03:21:35.268Z,0
2018-02-23T03:22:35.280Z,0
2018-02-23T03:23:35.299Z,0
2018-02-23T03:24:20.670Z,0
2018-02-23T03:25:20.650Z,0
2018-02-23T03:26:20.655Z,0
2018-02-23T03:27:20.673Z,0
2018-02-23T03:28:20.441Z,0
2018-02-23T03:29:20.441Z,0
2018-02-23T03:30:20.735Z,0
2018-02-23T03:31:20.481Z,0
2018-02-23T03:32:20.751Z,0
2018-02-23T03:33:20.752Z,0
2018-02-23T03:34:20.748Z,0
2018-02-23T03:35:20.862Z,0
2018-02-23T03:36:20.785Z,0
2018-02-23T03:37:20.511Z,0
2018-02-23T03:38:20.804Z,0
2018-02-23T03:40:20.824Z,0
2018-02-23T03:41:20.857Z,0
2018-02-23T03:42:20.850Z,0
2018-02-23T03:43:20.582Z,0
2018-02-23T03:45:20.881Z,0
2018-02-23T03:46:35.528Z,0
2018-02-23T03:49:35.569Z,0
2018-02-23T03:50:35.580Z,0
2018-02-23T03:51:35.330Z,0
2018-02-23T03:52:20.940Z,0
2018-02-23T03:53:20.690Z,0
2018-02-23T03:54:20.991Z,0
2018-02-23T03:55:35.624Z,0
2018-02-23T03:56:20.999Z,0
2018-02-23T03:57:21.009Z,0
2018-02-23T03:58:35.409Z,0
2018-02-23T03:59:21.016Z,0
2018-02-23T04:00:21.040Z,0
2018-02-23T04:01:21.032Z,0
2018-02-23T04:03:35.724Z,0
2018-02-23T04:04:21.082Z,0
2018-02-23T04:05:35.551Z,0
2018-02-23T04:08:21.132Z,0
2018-02-23T04:09:21.154Z,0
2018-02-23T04:10:35.793Z,0
2018-02-23T04:11:21.153Z,0
2018-02-23T04:12:35.923Z,0
2018-02-23T04:13:21.176Z,0
2018-02-23T04:14:21.195Z,0
2018-02-23T04:15:21.203Z,0
2018-02-23T04:16:21.198Z,0
2018-02-23T04:17:35.945Z,0
2018-02-23T04:18:21.230Z,0
2018-02-23T04:19:21.250Z,0
2018-02-23T04:20:21.260Z,0
2018-02-23T04:22:21.258Z,0
2018-02-23T04:23:21.121Z,0
2018-02-23T04:24:20.779Z,0
2018-02-23T04:25:21.295Z,0
2018-02-23T04:26:21.299Z,0
2018-02-23T04:27:21.316Z,0
2018-02-23T04:29:21.090Z,0
2018-02-23T04:30:21.352Z,0
2018-02-23T04:31:21.353Z,0
2018-02-23T04:32:21.378Z,0
2018-02-23T04:33:35.767Z,0
2018-02-23T04:34:36.049Z,0
2018-02-23T04:35:21.415Z,0
2018-02-23T04:36:21.418Z,0
2018-02-23T04:37:36.082Z,0
2018-02-23T04:38:36.091Z,0
2018-02-23T04:39:21.433Z,0
2018-02-23T04:40:21.207Z,0
2018-02-23T04:41:21.563Z,0
2018-02-23T04:42:35.858Z,0
2018-02-23T04:43:21.480Z,0
2018-02-23T04:44:21.252Z,0
2018-02-23T04:45:21.257Z,0
2018-02-23T04:46:21.518Z,0
2018-02-23T04:47:21.259Z,0
2018-02-23T04:48:21.555Z,0
2018-02-23T04:49:21.688Z,0
2018-02-23T04:50:21.558Z,0
2018-02-23T04:51:21.548Z,0
2018-02-23T04:52:21.582Z,0
2018-02-23T04:53:21.592Z,0
2018-02-23T04:54:21.091Z,0
2018-02-23T04:55:20.853Z,0
2018-02-23T04:56:21.376Z,0
2018-02-23T04:57:36.293Z,0
2018-02-23T04:58:36.303Z,0
2018-02-23T04:59:21.395Z,0
2018-02-23T05:00:21.659Z,0
2018-02-23T05:02:21.692Z,0
2018-02-23T05:03:21.708Z,0
2018-02-23T05:04:21.527Z,0
2018-02-23T05:05:21.474Z,0
2018-02-23T05:06:36.371Z,0
2018-02-23T05:07:21.491Z,0
2018-02-23T05:08:21.764Z,0
2018-02-23T05:09:21.758Z,0
2018-02-23T05:10:21.752Z,0
2018-02-23T05:11:21.779Z,0
2018-02-23T05:12:21.780Z,0
2018-02-23T05:13:21.818Z,0
2018-02-23T05:14:36.452Z,0
2018-02-23T05:17:36.486Z,0
2018-02-23T05:18:21.901Z,0
2018-02-23T05:19:21.869Z,0
2018-02-23T05:20:21.613Z,0
2018-02-23T05:21:21.898Z,0
2018-02-23T05:22:21.899Z,0
2018-02-23T05:24:21.406Z,0
2018-02-23T05:25:36.314Z,0
2018-02-23T05:26:21.669Z,0
2018-02-23T05:27:21.953Z,0
2018-02-23T05:28:21.954Z,0
2018-02-23T05:29:21.958Z,0
2018-02-23T05:30:36.114Z,0
2018-02-23T05:31:21.707Z,0
2018-02-23T05:32:22.006Z,0
2018-02-23T05:33:22.003Z,0
2018-02-23T05:34:21.761Z,0
2018-02-23T05:35:22.032Z,0
2018-02-23T05:36:22.025Z,0
2018-02-23T05:37:22.045Z,0
2018-02-23T05:38:22.062Z,0
2018-02-23T05:39:22.049Z,0
2018-02-23T05:40:22.068Z,0
2018-02-23T05:41:21.833Z,0
2018-02-23T05:42:22.099Z,0
2018-02-23T05:43:21.843Z,0
2018-02-23T05:44:36.789Z,0
2018-02-23T05:45:36.531Z,0
2018-02-23T05:46:22.126Z,0
2018-02-23T05:47:22.141Z,0
2018-02-23T05:48:22.143Z,0
2018-02-23T05:49:22.172Z,0
2018-02-23T05:50:36.586Z,0
2018-02-23T05:51:21.953Z,0
2018-02-23T05:52:22.194Z,0
2018-02-23T05:53:22.204Z,0
2018-02-23T05:54:36.617Z,0
2018-02-23T05:55:36.633Z,0
2018-02-23T05:56:22.246Z,0
2018-02-23T05:57:22.246Z,0
2018-02-23T05:58:22.269Z,0
2018-02-23T05:59:22.265Z,0
2018-02-23T06:00:22.258Z,5
2018-02-23T06:01:22.027Z,5
2018-02-23T06:02:22.309Z,5
2018-02-23T06:03:22.299Z,5
2018-02-23T06:04:22.327Z,5
2018-02-23T06:05:22.166Z,5
2018-02-23T06:06:22.348Z,5
2018-02-23T06:07:36.990Z,5
2018-02-23T06:08:22.358Z,10
2018-02-23T06:09:37.026Z,10
2018-02-23T06:10:22.373Z,10
2018-02-23T06:11:36.784Z,10
2018-02-23T06:12:22.418Z,10
2018-02-23T06:13:22.157Z,10
2018-02-23T06:14:22.155Z,15
2018-02-23T06:15:22.427Z,15
2018-02-23T06:16:37.081Z,15
2018-02-23T06:17:37.123Z,15
2018-02-23T06:18:22.449Z,20
2018-02-23T06:19:37.114Z,20
2018-02-23T06:20:22.572Z,20
2018-02-23T06:21:21.958Z,20
2018-02-23T06:22:22.517Z,25
2018-02-23T06:23:37.169Z,25
2018-02-23T06:24:22.022Z,25
2018-02-23T06:25:22.280Z,25
2018-02-23T06:26:22.283Z,30
2018-02-23T06:27:22.528Z,30
2018-02-23T06:28:22.542Z,30
2018-02-23T06:29:22.561Z,35
2018-02-23T06:30:22.601Z,35
2018-02-23T06:31:22.325Z,35
2018-02-23T06:32:22.609Z,40
2018-02-23T06:33:37.271Z,75
2018-02-23T06:34:37.282Z,110
2018-02-23T06:36:22.366Z,150
2018-02-23T06:37:22.647Z,155
2018-02-23T06:38:37.058Z,165
2018-02-23T06:39:22.418Z,180
2018-02-23T06:40:22.683Z,190
2018-02-23T06:41:22.435Z,195
2018-02-23T06:42:22.694Z,210
2018-02-23T06:43:22.712Z,230
2018-02-23T06:44:22.830Z,235
2018-02-23T06:45:22.584Z,190
2018-02-23T06:46:22.504Z,105
2018-02-23T06:47:22.742Z,60
2018-02-23T06:48:22.810Z,60
2018-02-23T06:49:37.445Z,65
2018-02-23T06:52:22.864Z,70
2018-02-23T06:54:37.502Z,90
2018-02-23T06:55:22.866Z,135
2018-02-23T06:56:37.521Z,225
2018-02-23T06:57:22.890Z,275
2018-02-23T06:58:22.619Z,300
2018-02-23T06:59:22.908Z,280
2018-02-23T07:00:37.576Z,275
2018-02-23T07:01:22.666Z,285
2018-02-23T07:02:37.586Z,325
2018-02-23T07:03:22.937Z,330
2018-02-23T07:04:22.707Z,330
2018-02-23T07:05:37.382Z,365
2018-02-23T07:06:22.991Z,370
2018-02-23T07:07:23.018Z,370
2018-02-23T07:09:22.782Z,375
2018-02-23T07:10:23.051Z,375
2018-02-23T07:11:23.324Z,380
2018-02-23T07:12:23.145Z,415
2018-02-23T07:13:23.102Z,420
2018-02-23T07:14:23.089Z,425
2018-02-23T07:15:23.112Z,425
2018-02-23T07:16:23.138Z,440
2018-02-23T07:18:23.164Z,460
2018-02-23T07:19:23.173Z,475
2018-02-23T07:20:37.591Z,475
2018-02-23T07:21:23.195Z,450
2018-02-23T07:22:23.077Z,380
2018-02-23T07:23:22.962Z,240
2018-02-23T07:24:23.258Z,175
2018-02-23T07:26:37.923Z,175
2018-02-23T07:28:37.978Z,175
2018-02-23T07:29:37.988Z,175
2018-02-23T07:30:23.343Z,180
2018-02-23T07:31:22.830Z,180
2018-02-23T07:32:23.367Z,180
2018-02-23T07:33:23.120Z,180
2018-02-23T07:34:38.064Z,180
2018-02-23T07:35:37.827Z,185
2018-02-23T07:36:23.450Z,185
2018-02-23T07:37:23.432Z,185
2018-02-23T07:38:23.476Z,185
2018-02-23T07:39:23.224Z,185
2018-02-23T07:40:23.506Z,185
2018-02-23T07:41:23.524Z,190
2018-02-23T07:42:23.538Z,190
2018-02-23T07:43:23.557Z,190
2018-02-23T07:44:23.560Z,190
2018-02-23T07:45:23.063Z,195
2018-02-23T07:46:23.076Z,195
2018-02-23T07:47:38.013Z,195
2018-02-23T07:48:23.625Z,195
2018-02-23T07:49:23.645Z,195
2018-02-23T07:50:23.773Z,195
2018-02-23T07:51:38.349Z,195
2018-02-23T07:52:38.347Z,200
2018-02-23T07:53:23.549Z,195
2018-02-23T07:54:23.459Z,200
2018-02-23T07:55:23.722Z,200
2018-02-23T07:56:23.753Z,200
2018-02-23T07:57:23.776Z,205
2018-02-23T07:58:23.800Z,205
2018-02-23T07:59:23.280Z,200
2018-02-23T08:00:38.573Z,200
2018-02-23T08:01:23.857Z,200
2018-02-23T08:02:23.835Z,200
2018-02-23T08:03:23.860Z,200
2018-02-23T08:04:23.890Z,200
2018-02-23T08:05:38.549Z,205
2018-02-23T08:06:38.317Z,200
2018-02-23T08:07:23.907Z,205
2018-02-23T08:08:38.611Z,205
2018-02-23T08:09:23.447Z,205
2018-02-23T08:10:23.740Z,205
2018-02-23T08:11:23.991Z,205
2018-02-23T08:12:38.657Z,200
2018-02-23T08:13:38.435Z,205
2018-02-23T08:14:38.675Z,200
2018-02-23T08:15:23.515Z,200
2018-02-23T08:16:38.715Z,205
2018-02-23T08:17:38.730Z,200
2018-02-23T08:20:23.901Z,200
2018-02-23T08:21:38.541Z,200
2018-02-23T08:22:24.141Z,205
2018-02-23T08:23:23.923Z,205
2018-02-23T08:24:38.838Z,205
2018-02-23T08:25:23.950Z,205
2018-02-23T08:26:38.870Z,205
2018-02-23T08:27:23.971Z,205
2018-02-23T08:28:38.646Z,205
2018-02-23T08:29:24.016Z,205
2018-02-23T08:30:24.012Z,200
2018-02-23T08:31:38.931Z,205
2018-02-23T08:32:24.311Z,205
2018-02-23T08:33:38.449Z,205
2018-02-23T08:35:24.334Z,205
2018-02-23T08:36:24.124Z,200
2018-02-23T08:37:24.361Z,200
2018-02-23T08:38:24.420Z,200
2018-02-23T08:39:24.402Z,200
2018-02-23T08:40:39.078Z,200
2018-02-23T08:41:24.162Z,205
2018-02-23T08:42:24.197Z,200
2018-02-23T08:43:24.457Z,200
2018-02-23T08:44:24.237Z,200
2018-02-23T08:45:24.487Z,195
2018-02-23T08:46:24.508Z,200
2018-02-23T08:47:39.181Z,200
2018-02-23T08:48:24.528Z,200
2018-02-23T08:49:24.280Z,200
2018-02-23T08:50:24.574Z,200
2018-02-23T08:51:24.319Z,200
2018-02-23T08:52:24.595Z,205
2018-02-23T08:53:24.356Z,210
2018-02-23T08:54:24.627Z,205
2018-02-23T08:55:39.276Z,200
2018-02-23T08:56:24.651Z,200
2018-02-23T08:58:24.675Z,200
2018-02-23T08:59:24.695Z,195
2018-02-23T09:00:24.445Z,195
2018-02-23T09:01:24.799Z,195
2018-02-23T09:02:24.485Z,195
2018-02-23T09:03:24.517Z,185
2018-02-23T09:04:39.444Z,195
2018-02-23T09:05:24.780Z,200
2018-02-23T09:06:24.545Z,200
2018-02-23T09:07:24.862Z,190
2018-02-23T09:08:24.829Z,190
2018-02-23T09:09:24.857Z,190
2018-02-23T09:10:24.585Z,190
2018-02-23T09:12:24.885Z,180
2018-02-23T09:14:39.565Z,190
2018-02-23T09:15:39.596Z,190
2018-02-23T09:16:24.956Z,200
2018-02-23T09:17:24.972Z,200
2018-02-23T09:18:24.988Z,185
2018-02-23T09:20:25.020Z,190
2018-02-23T09:21:25.026Z,200
2018-02-23T09:22:39.786Z,200
2018-02-23T09:24:24.814Z,200
2018-02-23T09:25:25.089Z,200
2018-02-23T09:26:24.828Z,200
2018-02-23T09:27:39.769Z,195
2018-02-23T09:28:39.514Z,190
2018-02-23T09:29:39.535Z,190
2018-02-23T09:30:25.184Z,195
2018-02-23T09:31:24.654Z,195
2018-02-23T09:32:24.929Z,200
2018-02-23T09:33:25.242Z,195
2018-02-23T09:34:39.878Z,190
2018-02-23T09:35:25.291Z,185
2018-02-23T09:36:25.258Z,185
2018-02-23T09:37:40.009Z,185
2018-02-23T09:38:39.685Z,185
2018-02-23T09:39:25.292Z,185
2018-02-23T09:40:25.051Z,185
2018-02-23T09:41:25.316Z,180
2018-02-23T09:42:24.832Z,175
2018-02-23T09:43:39.885Z,175
2018-02-23T09:44:25.379Z,175
2018-02-23T09:45:25.414Z,170
2018-02-23T09:47:24.904Z,170
2018-02-23T09:48:25.445Z,170
2018-02-23T09:49:24.925Z,170
2018-02-23T09:50:25.570Z,170
2018-02-23T09:51:25.493Z,165
2018-02-23T09:52:25.491Z,165
2018-02-23T09:53:25.255Z,165
2018-02-23T09:54:25.522Z,165
2018-02-23T09:55:25.540Z,165
2018-02-23T09:56:40.274Z,165
2018-02-23T09:57:25.668Z,165
2018-02-23T09:58:25.588Z,165
2018-02-23T09:59:40.259Z,165
2018-02-23T10:00:40.030Z,165
2018-02-23T10:01:25.636Z,165
2018-02-23T10:02:25.657Z,160
2018-02-23T10:03:40.068Z,165
2018-02-23T10:04:25.433Z,165
2018-02-23T10:05:25.703Z,165
2018-02-23T10:07:40.377Z,165
2018-02-23T10:08:25.736Z,160
2018-02-23T10:09:25.748Z,165
2018-02-23T10:10:40.456Z,165
2018-02-23T10:11:25.803Z,165
2018-02-23T10:12:25.565Z,160
2018-02-23T10:14:25.580Z,160
2018-02-23T10:15:40.505Z,165
2018-02-23T10:16:40.521Z,160
2018-02-23T10:17:25.878Z,160
2018-02-23T10:18:40.558Z,160
2018-02-23T10:19:25.894Z,160
2018-02-23T10:20:25.675Z,160
2018-02-23T10:21:26.143Z,160
2018-02-23T10:23:25.989Z,160
2018-02-23T10:24:25.978Z,160
2018-02-23T10:25:40.680Z,160
2018-02-23T10:26:26.005Z,160
2018-02-23T10:27:26.049Z,160
2018-02-23T10:28:26.047Z,160
2018-02-23T10:30:40.468Z,160
2018-02-23T10:31:26.086Z,160
2018-02-23T10:32:26.110Z,155
2018-02-23T10:33:40.767Z,155
2018-02-23T10:34:26.137Z,155
2018-02-23T10:35:25.883Z,155
2018-02-23T10:36:25.939Z,150
2018-02-23T10:37:40.842Z,150
2018-02-23T10:38:26.233Z,145
2018-02-23T10:39:26.202Z,145
2018-02-23T10:40:26.242Z,145
2018-02-23T10:42:26.245Z,140
2018-02-23T10:43:26.282Z,140
2018-02-23T10:44:26.039Z,140
2018-02-23T10:45:26.326Z,135
2018-02-23T10:46:25.798Z,135
2018-02-23T10:47:26.341Z,135
2018-02-23T10:48:26.349Z,130
2018-02-23T10:49:26.366Z,130
2018-02-23T10:50:26.123Z,125
2018-02-23T10:51:26.403Z,125
2018-02-23T10:52:41.058Z,120
2018-02-23T10:53:26.163Z,120
2018-02-23T10:54:26.176Z,120
2018-02-23T10:55:40.851Z,115
2018-02-23T10:56:26.476Z,115
2018-02-23T10:57:41.175Z,115
2018-02-23T10:58:26.248Z,115
2018-02-23T10:59:26.481Z,115
2018-02-23T11:00:26.517Z,115
2018-02-23T11:02:41.021Z,110
2018-02-23T11:03:26.284Z,110
2018-02-23T11:04:26.285Z,110
2018-02-23T11:05:26.581Z,110
2018-02-23T11:06:26.330Z,110
2018-02-23T11:07:41.078Z,110
2018-02-23T11:08:26.639Z,105
2018-02-23T11:09:26.352Z,105
2018-02-23T11:10:26.630Z,105
2018-02-23T11:11:26.660Z,110
2018-02-23T11:12:26.650Z,110
2018-02-23T11:14:26.429Z,110
2018-02-23T11:15:26.711Z,110
2018-02-23T11:16:26.710Z,110
2018-02-23T11:17:26.578Z,110
2018-02-23T11:18:41.499Z,110
2018-02-23T11:19:26.491Z,110
2018-02-23T11:20:26.501Z,110
2018-02-23T11:21:26.515Z,110
2018-02-23T11:22:26.519Z,105
2018-02-23T11:23:26.799Z,110
2018-02-23T11:24:26.656Z,105
2018-02-23T11:26:26.595Z,110
2018-02-23T11:27:26.885Z,110
2018-02-23T11:28:26.624Z,110
2018-02-23T11:29:26.627Z,110
2018-02-23T11:30:26.938Z,110
2018-02-23T11:31:26.638Z,110
2018-02-23T11:32:26.645Z,110
2018-02-23T11:33:26.935Z,110
2018-02-23T11:34:41.702Z,110
2018-02-23T11:35:41.354Z,110
2018-02-23T11:36:26.754Z,110
2018-02-23T11:37:41.378Z,110
2018-02-23T11:38:41.676Z,110
2018-02-23T11:39:26.997Z,110
2018-02-23T11:40:26.766Z,110
2018-02-23T11:41:27.033Z,110
2018-02-23T11:42:41.450Z,110
2018-02-23T11:43:41.445Z,110
2018-02-23T11:44:27.078Z,110
2018-02-23T11:45:27.113Z,110
2018-02-23T11:46:27.156Z,110
2018-02-23T11:47:27.111Z,110
2018-02-23T11:48:41.541Z,110
2018-02-23T11:49:41.550Z,110
2018-02-23T11:50:41.310Z,115
2018-02-23T11:51:26.901Z,115
2018-02-23T11:52:26.918Z,110
2018-02-23T11:53:41.582Z,110
2018-02-23T11:54:26.951Z,115
2018-02-23T11:55:26.957Z,115
2018-02-23T11:56:27.229Z,115
2018-02-23T11:57:26.976Z,115
2018-02-23T11:58:27.257Z,115
2018-02-23T12:00:27.033Z,115
2018-02-23T12:01:27.306Z,115
2018-02-23T12:02:41.961Z,110
2018-02-23T12:03:27.331Z,110
2018-02-23T12:04:42.014Z,110
2018-02-23T12:05:42.000Z,110
2018-02-23T12:06:42.025Z,110
2018-02-23T12:07:27.124Z,115
2018-02-23T12:08:27.381Z,120
2018-02-23T12:09:27.148Z,120
2018-02-23T12:10:27.169Z,120
2018-02-23T12:11:27.199Z,120
2018-02-23T12:12:27.439Z,115
2018-02-23T12:13:27.185Z,120
2018-02-23T12:14:26.951Z,120
2018-02-23T12:15:26.977Z,120
2018-02-23T12:17:27.485Z,120
2018-02-23T12:18:27.250Z,115
2018-02-23T12:19:27.518Z,115
2018-02-23T12:20:27.539Z,120
2018-02-23T12:21:27.967Z,120
2018-02-23T12:22:27.301Z,120
2018-02-23T12:23:27.600Z,115
2018-02-23T12:24:27.383Z,115
2018-02-23T12:25:27.615Z,115
2018-02-23T12:26:27.632Z,115
2018-02-23T12:27:27.691Z,115
2018-02-23T12:28:27.498Z,115
2018-02-23T12:29:27.391Z,115
2018-02-23T12:30:27.660Z,115
2018-02-23T12:31:42.343Z,115
2018-02-23T12:32:42.088Z,115
2018-02-23T12:33:27.698Z,110
2018-02-23T12:34:27.710Z,110
2018-02-23T12:35:42.390Z,110
2018-02-23T12:36:27.219Z,110
2018-02-23T12:37:42.407Z,110
2018-02-23T12:38:42.434Z,110
2018-02-23T12:39:27.530Z,110
2018-02-23T12:40:42.466Z,110
2018-02-23T12:41:27.564Z,110
2018-02-23T12:42:27.834Z,110
2018-02-23T12:43:27.319Z,110
2018-02-23T12:44:27.841Z,110
2018-02-23T12:45:42.530Z,110
2018-02-23T12:46:42.530Z,110
2018-02-23T12:47:27.618Z,110
2018-02-23T12:48:27.917Z,110
2018-02-23T12:49:27.928Z,110
2018-02-23T12:50:27.939Z,110
2018-02-23T12:51:27.953Z,110
2018-02-23T12:52:42.622Z,110
2018-02-23T12:53:42.618Z,110
2018-02-23T12:54:42.625Z,110
2018-02-23T12:55:27.985Z,110
2018-02-23T12:56:42.657Z,110
2018-02-23T12:57:27.779Z,110
2018-02-23T12:58:27.778Z,110
2018-02-23T12:59:28.051Z,110
2018-02-23T13:00:42.729Z,110
2018-02-23T13:01:28.056Z,110
2018-02-23T13:02:28.099Z,110
2018-02-23T13:03:42.751Z,110
2018-02-23T13:04:42.771Z,110
2018-02-23T13:05:28.151Z,110
2018-02-23T13:06:28.139Z,110
2018-02-23T13:07:28.212Z,110
2018-02-23T13:08:28.157Z,110
2018-02-23T13:09:57.478Z,110
2018-02-23T13:11:28.213Z,110
2018-02-23T13:12:27.939Z,110
2018-02-23T13:13:28.237Z,110
2018-02-23T13:15:28.011Z,110
2018-02-23T13:16:27.988Z,110
2018-02-23T13:17:28.278Z,110
2018-02-23T13:18:28.282Z,110
2018-02-23T13:19:28.306Z,115
2018-02-23T13:21:42.995Z,110
2018-02-23T13:22:28.333Z,110
2018-02-23T13:23:28.357Z,110
2018-02-23T13:24:28.367Z,110
2018-02-23T13:25:57.448Z,110
2018-02-23T13:26:28.390Z,110
2018-02-23T13:27:27.893Z,110
2018-02-23T13:28:28.407Z,110
2018-02-23T13:29:28.181Z,110
2018-02-23T13:30:28.219Z,110
2018-02-23T13:31:28.454Z,110
2018-02-23T13:32:28.487Z,110
2018-02-23T13:33:28.524Z,110
2018-02-23T13:34:28.499Z,110
2018-02-23T13:35:42.908Z,110
2018-02-23T13:36:28.033Z,110
2018-02-23T13:37:28.303Z,110
2018-02-23T13:38:28.546Z,110
2018-02-23T13:39:28.560Z,110
2018-02-23T13:40:57.882Z,110
2018-02-23T13:41:28.602Z,110
2018-02-23T13:42:28.363Z,110
2018-02-23T13:43:28.354Z,110
2018-02-23T13:44:28.627Z,110
2018-02-23T13:45:28.638Z,110
2018-02-23T13:46:43.317Z,110
2018-02-23T13:47:28.398Z,110
2018-02-23T13:48:28.661Z,110
2018-02-23T13:49:28.684Z,110
2018-02-23T13:50:28.690Z,110
2018-02-23T13:51:28.718Z,110
2018-02-23T13:52:28.721Z,110
2018-02-23T13:53:28.733Z,110
2018-02-23T13:54:43.152Z,110
2018-02-23T13:55:28.516Z,110
2018-02-23T13:56:28.509Z,110
2018-02-23T13:57:43.443Z,105
2018-02-23T13:58:28.552Z,110
2018-02-23T13:59:43.212Z,105
2018-02-23T14:00:28.818Z,105
2018-02-23T14:01:43.239Z,105
2018-02-23T14:02:28.865Z,105
2018-02-23T14:03:28.615Z,105
2018-02-23T14:04:43.284Z,105
2018-02-23T14:05:28.622Z,105
2018-02-23T14:06:43.664Z,100
2018-02-23T14:08:28.944Z,105
2018-02-23T14:09:28.942Z,105
2018-02-23T14:11:43.727Z,105
2018-02-23T14:12:43.646Z,105
2018-02-23T14:13:28.756Z,105
2018-02-23T14:14:29.010Z,105
2018-02-23T14:15:29.023Z,105
2018-02-23T14:16:29.018Z,105
2018-02-23T14:17:29.069Z,105
2018-02-23T14:18:29.069Z,100
2018-02-23T14:20:43.748Z,95
2018-02-23T14:21:29.113Z,95
2018-02-23T14:22:29.098Z,95
2018-02-23T14:24:43.536Z,95
2018-02-23T14:25:29.155Z,95
2018-02-23T14:26:29.170Z,100
2018-02-23T14:29:29.201Z,95
2018-02-23T14:30:29.224Z,95
2018-02-23T14:31:28.956Z,95
2018-02-23T14:32:43.644Z,100
2018-02-23T14:33:28.996Z,95
2018-02-23T14:34:43.929Z,100
2018-02-23T14:35:43.150Z,100
2018-02-23T14:36:43.684Z,100
2018-02-23T14:37:29.036Z,95
2018-02-23T14:39:29.057Z,95
2018-02-23T14:40:43.742Z,95
2018-02-23T14:41:29.365Z,95
2018-02-23T14:42:29.117Z,95
2018-02-23T14:43:29.265Z,95
2018-02-23T14:44:58.710Z,95
2018-02-23T14:45:44.056Z,95
2018-02-23T14:46:29.443Z,95
2018-02-23T14:47:44.093Z,95
2018-02-23T14:48:29.468Z,95
2018-02-23T14:49:43.865Z,95
2018-02-23T14:50:29.587Z,95
2018-02-23T14:52:29.255Z,90
2018-02-23T14:53:29.507Z,90
2018-02-23T14:54:29.249Z,90
2018-02-23T14:55:29.654Z,90
2018-02-23T14:56:29.283Z,90
2018-02-23T14:57:29.566Z,90
2018-02-23T14:58:29.590Z,90
2018-02-23T14:59:29.334Z,90
2018-02-23T15:00:44.256Z,85
2018-02-23T15:01:29.620Z,85
2018-02-23T15:02:29.644Z,85
2018-02-23T15:03:44.030Z,85
2018-02-23T15:04:29.398Z,85
2018-02-23T15:05:44.055Z,95
2018-02-23T15:06:29.684Z,95
2018-02-23T15:07:29.700Z,105
2018-02-23T15:08:29.458Z,105
2018-02-23T15:09:29.710Z,100
2018-02-23T15:10:29.750Z,120
2018-02-23T15:11:29.760Z,115
2018-02-23T15:12:44.412Z,110
2018-02-23T15:13:29.505Z,105
2018-02-23T15:14:44.194Z,95
2018-02-23T15:15:44.202Z,85